»·PEaware :: N35VT KCLM-KFHR

N35VT :: KCLM-KFHR

FLIGHT INFORMATION

Flight Status: Arrived
Operator: Privately registered:
United States
More flights under this callsign
Pilot: Jake W. (30069)
Aircraft: BEECH AIRCRAFT BONANZA
(BE35)
More flights by this aircraft type
Origin: KCLM Fairchild Intl
United States
Destination: KFHR Friday Harbor
United States
More flights between these airports :: More routes between these airports
Route: WATTR7 WATTR
File this flight plan on PilotEdge
Remarks: None
Altitude:
(Current/Filed)
7,000ft
Speed:
(Current/Filed)
150kts
Departed: 10-Aug-20 07:02 PM
Arrived: 10-Aug-20 07:34 PM
Distance/Time
Traveled:
31nm/0:32
Distance/Time
To Go:
Arrived

Flight Plot

Page will automatically refresh every two minutes.

Flight plan parsing failed; only flown route is shown


Map Options




Map Legend


Flown Route
Filed Route
Departure Airport
Arrival Airport
Navaid (VOR, NDB)
Fix

Horizontal Profiles

Position Reports

Time Latitude Longitude Heading Altitude Ground
Speed
10-Aug-20 18:41 48.115637 -123.487971 13 298ft 0kts
10-Aug-20 18:42 48.115637 -123.487971 13 298ft 0kts
10-Aug-20 18:43 48.115637 -123.487971 13 298ft 0kts
10-Aug-20 18:44 48.115532 -123.488005 12 298ft 0kts
10-Aug-20 18:45 48.115532 -123.488005 12 298ft 0kts
10-Aug-20 18:46 48.115532 -123.488005 12 298ft 0kts
10-Aug-20 18:47 48.115532 -123.488005 12 298ft 0kts
10-Aug-20 18:48 48.115532 -123.488005 12 298ft 0kts
10-Aug-20 18:49 48.115532 -123.488005 12 298ft 0kts
10-Aug-20 18:50 48.115532 -123.488005 12 298ft 0kts
10-Aug-20 18:51 48.115532 -123.488005 12 298ft 0kts
10-Aug-20 18:52 48.115532 -123.488005 12 298ft 0kts
10-Aug-20 18:53 48.115532 -123.488005 12 298ft 0kts
10-Aug-20 18:54 48.115532 -123.488005 12 298ft 0kts
10-Aug-20 18:55 48.115638 -123.487276 76 300ft 11kts
10-Aug-20 18:56 48.115870 -123.486742 16 300ft 0kts
10-Aug-20 18:57 48.115870 -123.486742 16 300ft 0kts
10-Aug-20 18:58 48.115899 -123.486730 14 300ft 0kts
10-Aug-20 18:59 48.115908 -123.486726 14 300ft 0kts
10-Aug-20 19:00 48.115908 -123.486726 14 300ft 0kts
10-Aug-20 19:01 48.117397 -123.490688 288 288ft 70kts
10-Aug-20 19:02 48.129086 -123.519251 3 1176ft 88kts
10-Aug-20 19:03 48.141064 -123.482492 94 2051ft 111kts
10-Aug-20 19:04 48.137316 -123.436683 94 2967ft 107kts
10-Aug-20 19:05 48.135318 -123.397193 89 3907ft 82kts
10-Aug-20 19:06 48.131551 -123.357894 91 4359ft 120kts
10-Aug-20 19:07 48.129848 -123.314670 88 5282ft 85kts
10-Aug-20 19:08 48.127763 -123.277196 90 5766ft 93kts
10-Aug-20 19:09 48.126489 -123.235184 79 6168ft 103kts
10-Aug-20 19:10 48.127734 -123.186879 78 6671ft 118kts
10-Aug-20 19:11 48.132425 -123.133894 82 7027ft 144kts
10-Aug-20 19:12 48.134059 -123.069009 84 7050ft 173kts
10-Aug-20 19:13 48.143687 -122.999218 65 7054ft 181kts
10-Aug-20 19:15 48.181052 -122.964610 355 6987ft 166kts
10-Aug-20 19:16 48.226813 -122.953745 355 7022ft 162kts
10-Aug-20 19:17 48.272369 -122.951235 358 7055ft 163kts
10-Aug-20 19:18 48.318110 -122.954018 354 7034ft 166kts
10-Aug-20 19:19 48.363992 -122.960871 344 7013ft 166kts
10-Aug-20 19:20 48.411193 -122.982192 337 6382ft 186kts
10-Aug-20 19:21 48.462588 -123.007175 345 5005ft 188kts
10-Aug-20 19:22 48.513238 -123.023236 343 4351ft 182kts
10-Aug-20 19:23 48.562158 -123.024619 56 3321ft 200kts
10-Aug-20 19:24 48.532210 -122.996646 219 2600ft 174kts
10-Aug-20 19:25 48.492295 -123.025581 171 2325ft 167kts
10-Aug-20 19:26 48.447133 -123.019799 177 2392ft 156kts
10-Aug-20 19:27 48.411095 -122.987384 125 2450ft 161kts
10-Aug-20 19:28 48.385676 -122.928078 168 2153ft 170kts
10-Aug-20 19:29 48.384179 -122.973489 308 2197ft 159kts
10-Aug-20 19:30 48.418694 -123.013442 337 2257ft 165kts
10-Aug-20 19:30 48.456491 -123.018926 355 1924ft 150kts
10-Aug-20 19:32 48.495567 -123.022077 354 958ft 89kts
10-Aug-20 19:32 48.515410 -123.023832 353 140ft 84kts
10-Aug-20 19:33 48.526574 -123.025351 271 116ft 0kts
10-Aug-20 19:35 48.526479 -123.026279 260 119ft 0kts

Navigation Log

Ident Type
Flight plan parsing failed, navigation log unavailable